Time;durP1;ratioP1;P1;durP2;ratioP2;P2;SDS_P1;SDS_P2;PMS_P1;PMS_P2;Temp;Humidity;BMP_temperature;BMP_pressure;BME280_temperature;BME280_humidity;BME280_pressure;Samples;Min_cycle;Max_cycle;Signal;HPM_P1;HPM_P2
2023/09/19 00:01:45;;;;;;;3.70;0.85;;;;;;;;;;5111149;28;20437;-50
2023/09/19 00:04:12;;;;;;;2.90;0.73;;;10.80;99.90;;;;;;5110962;28;20472;-49
2023/09/19 00:06:38;;;;;;;5.82;1.13;;;14.40;99.90;;;;;;5125538;27;20030;-53
2023/09/19 00:09:04;;;;;;;4.07;0.65;;;14.90;99.90;;;;;;5120612;27;20038;-53
2023/09/19 00:11:31;;;;;;;6.53;1.33;;;14.10;99.90;;;;;;5114967;27;20106;-50
2023/09/19 00:13:59;;;;;;;3.55;0.75;;;;;;;;;;5111068;28;20472;-53
2023/09/19 00:16:25;;;;;;;4.25;1.15;;;14.00;99.90;;;;;;5113842;27;20015;-54
2023/09/19 00:18:51;;;;;;;5.45;1.00;;;15.30;99.90;;;;;;5124964;27;20134;-50
2023/09/19 00:21:19;;;;;;;3.15;0.85;;;;;;;;;;5121432;27;20034;-42
2023/09/19 00:23:45;;;;;;;5.93;1.10;;;;;;;;;;5130270;27;20019;-45
2023/09/19 00:26:11;;;;;;;6.75;0.88;;;14.10;99.90;;;;;;5131538;27;20027;-43
2023/09/19 00:28:36;;;;;;;5.50;1.00;;;14.50;99.90;;;;;;5131476;27;20030;-40
2023/09/19 00:31:02;;;;;;;7.68;1.30;;;14.10;99.90;;;;;;5131313;27;20029;-43
2023/09/19 00:33:29;;;;;;;5.93;0.98;;;13.70;99.90;;;;;;5131611;27;20039;-46
2023/09/19 00:35:57;;;;;;;4.47;1.25;;;14.90;99.90;;;;;;5131592;28;20165;-47
2023/09/19 00:38:26;;;;;;;5.07;1.20;;;15.60;99.90;;;;;;5131263;27;20129;-43
2023/09/19 00:40:53;;;;;;;10.90;1.10;;;15.40;99.90;;;;;;5131335;28;20022;-55
2023/09/19 00:43:23;;;;;;;8.20;1.20;;;13.90;99.90;;;;;;5131242;27;20034;-52
2023/09/19 00:45:51;;;;;;;5.05;0.88;;;10.50;99.90;;;;;;5131284;28;20027;-51
2023/09/19 00:48:18;;;;;;;5.95;1.30;;;13.70;99.90;;;;;;5131264;28;20396;-42
2023/09/19 00:50:47;;;;;;;2.00;0.73;;;13.70;99.90;;;;;;5131160;28;20027;-46
2023/09/19 00:53:18;;;;;;;4.68;0.98;;;14.70;99.90;;;;;;5131263;27;20391;-41
2023/09/19 00:55:45;;;;;;;4.85;1.13;;;15.10;99.90;;;;;;5132242;27;20031;-46
2023/09/19 00:58:11;;;;;;;2.35;0.70;;;14.90;99.90;;;;;;5135580;27;20109;-53
2023/09/19 01:00:38;;;;;;;4.85;0.90;;;13.90;99.90;;;;;;5135432;27;20058;-46
2023/09/19 01:03:06;;;;;;;4.97;1.48;;;;;;;;;;5135290;27;20064;-42
2023/09/19 01:05:33;;;;;;;5.25;1.42;;;11.50;99.90;;;;;;5135329;27;20024;-55
2023/09/19 01:07:59;;;;;;;5.25;1.38;;;;;;;;;;5131154;27;20024;-52
2023/09/19 01:10:25;;;;;;;7.40;1.35;;;16.00;99.90;;;;;;5131021;27;20436;-52
2023/09/19 01:13:06;;;;;;;2.53;0.85;;;14.50;99.90;;;;;;5134779;27;20034;-50
2023/09/19 01:15:36;;;;;;;7.97;1.35;;;15.50;99.90;;;;;;5135133;27;20102;-46
2023/09/19 01:18:20;;;;;;;7.25;1.15;;;14.20;99.90;;;;;;5124195;27;20031;-57
2023/09/19 01:20:49;;;;;;;10.50;1.45;;;15.80;99.90;;;;;;5134450;27;20053;-59
2023/09/19 01:23:39;;;;;;;1.67;0.80;;;13.90;99.90;;;;;;5135139;27;20472;-56
2023/09/19 01:26:28;;;;;;;5.45;1.63;;;14.20;99.90;;;;;;5114704;27;20015;-53
2023/09/19 01:29:29;;;;;;;5.97;1.25;;;14.50;99.90;;;;;;5130724;27;20051;-53
2023/09/19 01:32:01;;;;;;;4.82;1.00;;;10.30;99.90;;;;;;5107376;27;20054;-58
2023/09/19 01:34:26;;;;;;;9.98;1.20;;;14.90;99.90;;;;;;5134503;27;20054;-46
2023/09/19 01:36:52;;;;;;;5.72;1.15;;;15.80;99.90;;;;;;5134697;27;20459;-55
2023/09/19 01:39:19;;;;;;;4.43;1.30;;;14.80;99.90;;;;;;5097144;28;20078;-58
2023/09/19 01:41:58;;;;;;;10.50;1.38;;;15.90;99.90;;;;;;5093678;28;20065;-54
2023/09/19 01:44:59;;;;;;;4.53;1.20;;;13.60;99.90;;;;;;5079227;28;20103;-54
2023/09/19 01:47:38;;;;;;;6.72;1.40;;;14.70;99.90;;;;;;5093595;28;20028;-53
2023/09/19 01:50:15;;;;;;;4.03;1.00;;;14.90;99.90;;;;;;5080632;28;20020;-51
2023/09/19 01:52:54;;;;;;;6.40;1.45;;;14.70;99.90;;;;;;5093125;28;20059;-47
2023/09/19 01:55:22;;;;;;;7.50;1.25;;;16.00;99.90;;;;;;5093055;28;20028;-48
2023/09/19 01:58:08;;;;;;;10.57;1.25;;;14.00;99.90;;;;;;5093240;28;20039;-43
2023/09/19 02:00:37;;;;;;;7.90;1.52;;;16.10;99.90;;;;;;5093054;28;20040;-47
2023/09/19 02:03:03;;;;;;;15.23;1.95;;;15.20;99.90;;;;;;5093150;28;20496;-53
2023/09/19 02:05:29;;;;;;;8.52;1.45;;;14.00;99.90;;;;;;5093360;28;20035;-42
2023/09/19 02:07:56;;;;;;;6.05;1.42;;;15.60;99.90;;;;;;5092212;28;20472;-50
2023/09/19 02:10:23;;;;;;;2.70;0.82;;;;;;;;;;5093045;28;20024;-41
2023/09/19 02:12:49;;;;;;;6.90;0.90;;;14.30;99.90;;;;;;5092732;28;20027;-49
2023/09/19 02:15:15;;;;;;;5.38;1.00;;;;;;;;;;5092738;28;20031;-41
2023/09/19 02:17:43;;;;;;;4.70;1.02;;;14.00;99.90;;;;;;5082474;28;20036;-51
2023/09/19 02:20:10;;;;;;;6.15;1.88;;;14.00;99.90;;;;;;5089144;28;20174;-50
2023/09/19 02:22:36;;;;;;;4.32;0.93;;;14.90;99.90;;;;;;5092731;28;20502;-50
2023/09/19 02:25:05;;;;;;;3.47;1.27;;;15.30;99.90;;;;;;5092643;28;20046;-49
2023/09/19 02:27:31;;;;;;;6.97;1.08;;;;;;;;;;5092563;28;20039;-40
2023/09/19 02:29:57;;;;;;;4.90;1.35;;;;;;;;;;5092400;28;20030;-40
2023/09/19 02:32:23;;;;;;;3.40;1.02;;;13.70;99.90;;;;;;5092533;28;20095;-49
2023/09/19 02:34:51;;;;;;;4.75;1.10;;;11.00;99.90;;;;;;5092587;28;20104;-48
2023/09/19 02:37:19;;;;;;;6.38;1.10;;;14.70;99.90;;;;;;5092567;28;20066;-53
2023/09/19 02:39:44;;;;;;;4.40;1.02;;;14.10;99.90;;;;;;5131498;27;20116;-49
2023/09/19 02:42:10;;;;;;;7.28;1.52;;;13.80;99.90;;;;;;5133287;27;20023;-50
2023/09/19 02:44:35;;;;;;;7.07;1.17;;;13.30;99.90;;;;;;5133099;27;20019;-44
2023/09/19 02:47:01;;;;;;;2.83;1.08;;;13.90;99.90;;;;;;5133402;27;20061;-44
2023/09/19 02:49:27;;;;;;;6.35;1.50;;;14.80;99.90;;;;;;5133065;27;20015;-44
2023/09/19 02:51:53;;;;;;;5.25;1.23;;;;;;;;;;5133361;27;20732;-47
2023/09/19 02:54:19;;;;;;;5.82;1.42;;;;;;;;;;5132846;27;20031;-44
2023/09/19 02:56:44;;;;;;;6.20;0.95;;;14.20;99.90;;;;;;5133097;27;20387;-55
2023/09/19 02:59:10;;;;;;;7.65;1.45;;;;;;;;;;5132911;27;20042;-44
2023/09/19 03:01:38;;;;;;;6.03;1.20;;;15.00;99.90;;;;;;5133140;27;20751;-42
2023/09/19 03:04:06;;;;;;;6.80;1.02;;;13.80;99.90;;;;;;5132128;27;20034;-53
2023/09/19 03:06:32;;;;;;;4.20;0.90;;;14.50;99.90;;;;;;5112186;28;20032;-44
2023/09/19 03:08:59;;;;;;;7.55;1.52;;;;;;;;;;5112252;28;20034;-48
2023/09/19 03:11:25;;;;;;;7.32;1.70;;;15.40;99.90;;;;;;5112059;28;20012;-43
2023/09/19 03:13:54;;;;;;;3.63;1.13;;;11.10;99.90;;;;;;5112223;28;20031;-51
2023/09/19 03:16:21;;;;;;;5.60;1.63;;;15.00;99.90;;;;;;5111963;28;20043;-50
2023/09/19 03:18:48;;;;;;;6.13;1.05;;;14.70;99.90;;;;;;5116724;27;20050;-47
2023/09/19 03:21:15;;;;;;;7.68;1.52;;;14.50;99.90;;;;;;5132315;27;20023;-39
2023/09/19 03:23:41;;;;;;;8.75;1.30;;;14.60;99.90;;;;;;5132351;27;20124;-53
2023/09/19 03:26:06;;;;;;;3.80;1.00;;;14.70;99.90;;;;;;5132841;27;20106;-53
2023/09/19 03:28:34;;;;;;;9.82;1.15;;;16.10;99.90;;;;;;5132428;27;20547;-54
2023/09/19 03:31:05;;;;;;;10.45;1.20;;;13.80;99.90;;;;;;5132517;27;20015;-48
2023/09/19 03:33:32;;;;;;;7.82;1.33;;;16.20;99.90;;;;;;5132265;27;20050;-45
2023/09/19 03:35:59;;;;;;;8.23;1.58;;;15.20;99.90;;;;;;5132335;27;20016;-49
2023/09/19 03:38:25;;;;;;;6.28;0.93;;;14.90;99.90;;;;;;5113840;27;20107;-57
2023/09/19 03:40:51;;;;;;;8.38;1.40;;;13.90;99.90;;;;;;5132223;27;20011;-47
2023/09/19 03:43:17;;;;;;;9.88;1.23;;;14.40;99.90;;;;;;5132401;27;20133;-57
2023/09/19 03:45:43;;;;;;;3.80;1.15;;;14.30;99.90;;;;;;5132182;27;20031;-49
2023/09/19 03:48:12;;;;;;;9.70;1.52;;;13.90;99.90;;;;;;5131952;27;20027;-43
2023/09/19 03:50:37;;;;;;;6.03;1.38;;;14.80;99.90;;;;;;5131945;27;20023;-47
2023/09/19 03:53:03;;;;;;;5.07;0.80;;;14.90;99.90;;;;;;5132110;27;20076;-50
2023/09/19 03:55:32;;;;;;;9.43;1.58;;;14.00;99.90;;;;;;5132028;27;20023;-46
2023/09/19 03:57:57;;;;;;;6.03;1.23;;;15.80;99.90;;;;;;5131920;27;20026;-54
2023/09/19 04:00:26;;;;;;;5.03;1.70;;;;;;;;;;5131810;27;20035;-45
2023/09/19 04:02:52;;;;;;;9.27;1.40;;;15.40;99.90;;;;;;5131733;27;20466;-43
2023/09/19 04:05:18;;;;;;;8.20;1.70;;;16.20;99.90;;;;;;5131631;27;20046;-41
2023/09/19 04:07:44;;;;;;;2.95;1.17;;;15.10;99.90;;;;;;5131715;27;20116;-54
2023/09/19 04:10:11;;;;;;;7.32;0.98;;;15.20;99.90;;;;;;5131658;27;20391;-51
2023/09/19 04:12:38;;;;;;;8.50;1.50;;;14.90;99.90;;;;;;5131479;27;20499;-42
2023/09/19 04:15:05;;;;;;;5.93;1.23;;;11.30;99.90;;;;;;5131594;27;20391;-48
2023/09/19 04:17:32;;;;;;;7.10;1.27;;;14.80;99.90;;;;;;5122825;27;20120;-44
2023/09/19 04:19:58;;;;;;;6.97;1.88;;;15.00;99.90;;;;;;5126351;27;20016;-56
2023/09/19 04:22:24;;;;;;;5.07;0.90;;;13.40;99.90;;;;;;5131906;27;20023;-43
2023/09/19 04:24:50;;;;;;;8.80;1.23;;;14.70;99.90;;;;;;5131666;27;20447;-50
2023/09/19 04:27:16;;;;;;;5.40;1.33;;;;;;;;;;5131338;27;20015;-44
2023/09/19 04:29:42;;;;;;;5.72;1.35;;;16.60;99.90;;;;;;5131464;27;20106;-56
2023/09/19 04:32:09;;;;;;;5.45;0.90;;;15.50;99.90;;;;;;5130933;27;20110;-52
2023/09/19 04:34:35;;;;;;;6.20;0.85;;;15.60;99.90;;;;;;5131329;27;20032;-53
2023/09/19 04:37:02;;;;;;;6.53;0.77;;;13.80;99.90;;;;;;5131164;27;20072;-42
2023/09/19 04:39:28;;;;;;;5.50;1.15;;;15.40;99.90;;;;;;5131320;28;20077;-51
2023/09/19 04:41:54;;;;;;;3.30;0.82;;;;;;;;;;5131380;28;20087;-52
2023/09/19 04:44:21;;;;;;;8.80;1.50;;;16.30;99.90;;;;;;5131238;27;20029;-59
2023/09/19 04:46:47;;;;;;;5.75;1.10;;;13.60;99.90;;;;;;5131351;27;20025;-58
2023/09/19 04:49:13;;;;;;;7.53;1.23;;;;;;;;;;5131080;27;20030;-51
2023/09/19 04:51:40;;;;;;;2.25;0.88;;;11.70;99.90;;;;;;5131398;28;20024;-53
2023/09/19 04:54:06;;;;;;;1.85;0.70;;;16.70;99.90;;;;;;5131177;27;20087;-47
2023/09/19 04:56:33;;;;;;;5.13;1.13;;;;;;;;;;5131454;28;20107;-42
2023/09/19 04:58:59;;;;;;;8.70;0.90;;;15.30;99.90;;;;;;5131143;27;20055;-54
2023/09/19 05:01:25;;;;;;;3.58;0.90;;;17.00;99.90;;;;;;5131273;27;20027;-51
2023/09/19 05:03:54;;;;;;;6.68;1.10;;;15.70;99.90;;;;;;5131196;28;20066;-47
2023/09/19 05:06:23;;;;;;;6.28;0.80;;;15.90;99.90;;;;;;5131093;28;20365;-58
2023/09/19 05:08:50;;;;;;;6.25;1.02;;;15.60;99.90;;;;;;5131267;28;20027;-55
2023/09/19 05:11:18;;;;;;;6.72;0.90;;;16.70;99.90;;;;;;5131004;27;20015;-49
2023/09/19 05:13:43;;;;;;;6.72;1.05;;;17.60;99.90;;;;;;5131222;28;20122;-59
2023/09/19 05:16:10;;;;;;;4.20;1.35;;;16.10;99.90;;;;;;5130897;27;20098;-60
2023/09/19 05:18:36;;;;;;;5.55;1.25;;;15.70;99.90;;;;;;5116517;28;20027;-46
2023/09/19 05:21:04;;;;;;;6.07;1.60;;;15.90;99.90;;;;;;5131259;28;20038;-54
2023/09/19 05:23:31;;;;;;;8.50;0.88;;;;;;;;;;5131179;27;20072;-54
2023/09/19 05:25:59;;;;;;;4.22;0.90;;;12.20;99.90;;;;;;5131141;27;20027;-56
2023/09/19 05:28:25;;;;;;;4.73;0.77;;;16.40;99.90;;;;;;5130992;28;20031;-45
2023/09/19 05:30:53;;;;;;;9.73;1.40;;;;;;;;;;5130958;27;20514;-46
2023/09/19 05:33:19;;;;;;;7.35;1.10;;;17.70;99.90;;;;;;5131208;28;20039;-49
2023/09/19 05:35:46;;;;;;;8.15;1.52;;;16.20;99.90;;;;;;5112123;28;20398;-49
2023/09/19 05:38:13;;;;;;;5.03;0.82;;;16.10;99.90;;;;;;5130541;28;20047;-46
2023/09/19 05:40:42;;;;;;;7.55;1.38;;;15.20;99.90;;;;;;5130873;28;20028;-52
2023/09/19 05:43:08;;;;;;;5.87;0.90;;;16.30;99.90;;;;;;5132494;27;20050;-46
2023/09/19 05:45:34;;;;;;;1.75;0.65;;;15.40;99.90;;;;;;5134466;27;20019;-53
2023/09/19 05:48:11;;;;;;;6.72;1.30;;;15.50;99.90;;;;;;5134705;27;20101;-54
2023/09/19 05:50:38;;;;;;;5.57;1.35;;;17.80;99.90;;;;;;5134412;27;20031;-57
2023/09/19 05:53:04;;;;;;;2.83;0.70;;;;;;;;;;5134256;27;20047;-61
2023/09/19 05:55:30;;;;;;;6.20;1.23;;;;;;;;;;5134373;27;20494;-55
2023/09/19 05:57:56;;;;;;;8.60;0.80;;;15.30;99.90;;;;;;5133902;27;20016;-53
2023/09/19 06:00:23;;;;;;;4.75;0.70;;;15.70;99.90;;;;;;5134074;27;20019;-59
2023/09/19 06:02:56;;;;;;;5.85;0.80;;;15.20;99.90;;;;;;5133974;27;20383;-45
2023/09/19 06:05:24;;;;;;;2.80;0.70;;;15.20;99.90;;;;;;5134137;27;20034;-41
2023/09/19 06:07:52;;;;;;;7.40;0.88;;;;;;;;;;5133981;27;20065;-49
2023/09/19 06:10:18;;;;;;;3.45;0.77;;;;;;;;;;5134092;27;20055;-51
2023/09/19 06:12:44;;;;;;;3.88;0.82;;;11.70;99.90;;;;;;5133901;27;20539;-60
2023/09/19 06:15:14;;;;;;;4.03;0.85;;;16.10;99.90;;;;;;5134035;27;20112;-55
2023/09/19 06:17:50;;;;;;;2.60;0.63;;;12.50;99.90;;;;;;5123721;27;20024;-56
2023/09/19 06:20:16;;;;;;;5.10;0.75;;;15.50;99.90;;;;;;5131010;27;20119;-42
2023/09/19 06:22:43;;;;;;;3.65;0.95;;;17.30;99.90;;;;;;5133792;27;20039;-51
2023/09/19 06:25:16;;;;;;;5.40;1.52;;;15.50;99.90;;;;;;5133896;27;20117;-54
2023/09/19 06:27:42;;;;;;;6.50;1.27;;;16.10;99.90;;;;;;5133845;27;20540;-47
2023/09/19 06:30:09;;;;;;;5.60;0.90;;;16.10;99.90;;;;;;5133694;27;20049;-58
2023/09/19 06:32:35;;;;;;;3.67;1.08;;;14.80;99.90;;;;;;5133588;27;20023;-59
2023/09/19 06:35:01;;;;;;;6.45;0.95;;;15.00;99.90;;;;;;5132616;27;20031;-57
2023/09/19 06:37:30;;;;;;;4.63;1.20;;;15.30;99.90;;;;;;5132325;27;20457;-45
2023/09/19 06:39:56;;;;;;;5.35;1.70;;;15.80;99.90;;;;;;5133571;27;20035;-56
2023/09/19 06:42:22;;;;;;;8.93;1.33;;;;;;;;;;5133334;27;20023;-43
2023/09/19 06:44:49;;;;;;;5.45;1.13;;;15.10;99.90;;;;;;5133624;27;20395;-40
2023/09/19 06:47:16;;;;;;;9.15;1.30;;;15.30;99.90;;;;;;5118925;27;20098;-40
2023/09/19 06:49:43;;;;;;;12.15;1.40;;;15.50;99.90;;;;;;5112796;28;20031;-42
2023/09/19 06:52:09;;;;;;;4.85;1.42;;;15.40;99.90;;;;;;5116363;27;20011;-47
2023/09/19 06:54:35;;;;;;;4.05;0.90;;;14.90;99.90;;;;;;5112581;28;20126;-45
2023/09/19 06:57:01;;;;;;;4.25;1.15;;;17.10;99.90;;;;;;5112354;27;20023;-57
2023/09/19 06:59:27;;;;;;;4.35;0.98;;;17.40;99.90;;;;;;5112275;28;20023;-49
2023/09/19 07:01:52;;;;;;;8.13;1.55;;;15.90;99.90;;;;;;5118110;27;20380;-50
2023/09/19 07:04:21;;;;;;;6.38;1.48;;;17.60;99.90;;;;;;5112527;27;20515;-59
2023/09/19 07:06:51;;;;;;;6.32;1.27;;;15.40;99.90;;;;;;5120598;27;20524;-46
2023/09/19 07:09:16;;;;;;;6.28;1.45;;;16.20;99.90;;;;;;5117797;27;20050;-41
2023/09/19 07:11:43;;;;;;;4.82;1.33;;;16.10;99.90;;;;;;5112739;27;20464;-48
2023/09/19 07:14:11;;;;;;;9.00;1.15;;;15.70;99.90;;;;;;5112497;27;20045;-52
2023/09/19 07:16:38;;;;;;;6.10;1.73;;;15.50;99.90;;;;;;5112041;28;20026;-43
2023/09/19 07:19:04;;;;;;;10.30;1.88;;;15.50;99.90;;;;;;5101043;27;20023;-44
2023/09/19 07:21:32;;;;;;;5.05;1.75;;;16.20;99.90;;;;;;5114761;27;20689;-51
2023/09/19 07:24:00;;;;;;;9.13;1.40;;;15.60;99.90;;;;;;5125538;27;20085;-47
2023/09/19 07:26:27;;;;;;;9.05;1.10;;;15.60;99.90;;;;;;5112256;28;20023;-54
2023/09/19 07:28:53;;;;;;;9.00;1.63;;;15.70;99.90;;;;;;5111957;27;20523;-58
2023/09/19 07:31:19;;;;;;;8.73;0.90;;;15.90;99.90;;;;;;5122101;27;20024;-50
2023/09/19 07:33:45;;;;;;;6.22;1.30;;;15.60;99.90;;;;;;5116792;27;20050;-54
2023/09/19 07:36:14;;;;;;;7.80;1.27;;;17.80;99.90;;;;;;5118409;27;20016;-44
2023/09/19 07:38:40;;;;;;;;;;;15.60;99.90;;;;;;5117460;27;20131;-54
2023/09/19 07:41:08;;;;;;;5.05;1.10;;;15.10;99.90;;;;;;5111843;27;19912;-48
2023/09/19 07:43:34;;;;;;;5.53;1.10;;;15.40;99.90;;;;;;5122385;27;20023;-45
2023/09/19 07:46:06;;;;;;;2.05;1.00;;;16.00;99.90;;;;;;5128120;27;20026;-42
2023/09/19 07:48:33;;;;;;;4.18;0.82;;;15.40;99.90;;;;;;5131345;27;20506;-47
2023/09/19 07:51:03;;;;;;;8.90;1.70;;;15.80;99.90;;;;;;5127508;27;20039;-44
2023/09/19 07:53:30;;;;;;;11.30;1.40;;;15.70;99.90;;;;;;5111406;27;20040;-45
2023/09/19 07:56:05;;;;;;;13.27;1.90;;;16.40;99.90;;;;;;5117591;27;20036;-44
2023/09/19 07:58:31;;;;;;;9.40;1.40;;;16.70;99.90;;;;;;5120638;27;20020;-49
2023/09/19 08:01:03;;;;;;;10.52;2.15;;;16.00;99.90;;;;;;5109546;27;20027;-50
2023/09/19 08:03:28;;;;;;;6.43;1.67;;;15.80;99.90;;;;;;5127503;27;20369;-57
2023/09/19 08:05:57;;;;;;;14.20;2.30;;;16.10;99.90;;;;;;5113017;27;20024;-47
2023/09/19 08:08:23;;;;;;;8.85;2.08;;;16.80;99.90;;;;;;5090061;28;20051;-41
2023/09/19 08:10:53;;;;;;;11.70;1.70;;;17.30;99.90;;;;;;5112200;27;20107;-44
2023/09/19 08:13:20;;;;;;;16.15;3.20;;;16.70;99.90;;;;;;5110501;27;20027;-42
2023/09/19 08:15:46;;;;;;;15.25;1.80;;;16.50;99.90;;;;;;5127365;27;20034;-53
2023/09/19 08:18:12;;;;;;;6.25;1.67;;;16.40;99.90;;;;;;5117467;27;20019;-47
2023/09/19 08:20:38;;;;;;;12.95;2.30;;;18.70;99.90;;;;;;5125481;27;20032;-41
2023/09/19 08:23:03;;;;;;;9.63;1.95;;;16.10;99.90;;;;;;5114229;27;20032;-42
2023/09/19 08:25:29;;;;;;;18.70;2.20;;;16.50;99.90;;;;;;5115845;27;20081;-44
2023/09/19 08:27:57;;;;;;;11.13;1.75;;;16.50;99.90;;;;;;5117699;27;20020;-45
2023/09/19 08:30:24;;;;;;;11.38;2.03;;;16.70;99.90;;;;;;5114829;28;20015;-43
2023/09/19 08:32:50;;;;;;;9.23;1.88;;;18.00;99.90;;;;;;5111896;28;20032;-41
2023/09/19 08:35:16;;;;;;;9.52;2.03;;;18.00;99.90;;;;;;5123474;27;20023;-49
2023/09/19 08:37:48;;;;;;;13.50;2.22;;;17.50;99.90;;;;;;5116928;28;20151;-46
2023/09/19 08:40:13;;;;;;;10.50;2.03;;;17.40;99.90;;;;;;5123243;28;20372;-51
2023/09/19 08:42:49;;;;;;;7.53;2.20;;;16.50;99.90;;;;;;5114078;28;20024;-49
2023/09/19 08:45:15;;;;;;;13.20;1.95;;;;;;;;;;5116281;28;20043;-53
2023/09/19 08:47:47;;;;;;;16.73;2.22;;;17.50;99.90;;;;;;5117649;28;20084;-56
2023/09/19 08:50:28;;;;;;;9.48;2.35;;;16.80;99.90;;;;;;5129526;27;20015;-50
2023/09/19 08:52:55;;;;;;;10.95;1.60;;;17.60;99.90;;;;;;5121033;28;20027;-47
2023/09/19 08:55:27;;;;;;;13.77;2.38;;;16.80;99.90;;;;;;5117901;28;20515;-46
2023/09/19 08:58:01;;;;;;;12.48;2.28;;;17.00;99.90;;;;;;5121253;27;20473;-57
2023/09/19 09:00:28;;;;;;;12.65;2.63;;;16.90;99.90;;;;;;5110875;28;20020;-48
2023/09/19 09:03:00;;;;;;;9.57;1.92;;;17.10;99.90;;;;;;5115108;28;20547;-41
2023/09/19 09:05:27;;;;;;;12.18;2.70;;;19.00;99.90;;;;;;5128378;27;20111;-51
2023/09/19 09:07:56;;;;;;;8.23;1.77;;;17.40;99.90;;;;;;5125987;28;20008;-54
2023/09/19 09:10:22;;;;;;;15.18;2.55;;;19.20;99.90;;;;;;5124392;28;20108;-45
2023/09/19 09:12:53;;;;;;;11.65;2.50;;;17.00;99.90;;;;;;5120552;28;20027;-45
2023/09/19 09:15:23;;;;;;;18.55;2.83;;;17.90;99.90;;;;;;5120799;28;20062;-60
2023/09/19 09:17:55;;;;;;;13.88;1.70;;;17.20;99.90;;;;;;5115509;27;20027;-60
2023/09/19 09:20:21;;;;;;;10.07;1.80;;;16.80;99.90;;;;;;5129816;27;20034;-52
2023/09/19 09:22:55;;;;;;;10.57;2.75;;;16.80;99.90;;;;;;5131380;27;20019;-53
2023/09/19 09:25:25;;;;;;;12.32;2.28;;;17.10;99.90;;;;;;5128802;27;20494;-61
2023/09/19 09:28:02;;;;;;;;;;;17.00;99.90;;;;;;5124217;27;20141;-57
2023/09/19 09:30:36;;;;;;;6.78;1.98;;;17.20;99.90;;;;;;5125080;27;20445;-55
2023/09/19 09:33:10;;;;;;;12.18;2.42;;;17.00;99.90;;;;;;5121873;27;20031;-56
2023/09/19 09:35:39;;;;;;;17.02;3.42;;;17.40;99.90;;;;;;5130772;27;20064;-54
2023/09/19 09:38:08;;;;;;;8.68;1.63;;;13.70;99.90;;;;;;5124560;27;20048;-58
2023/09/19 09:40:47;;;;;;;;;;;17.10;99.90;;;;;;5129938;27;20030;-54
2023/09/19 09:43:30;;;;;;;15.95;3.28;;;17.90;99.90;;;;;;5134499;27;19907;-48
2023/09/19 09:49:24;;;;;;;9.80;2.13;;;17.20;99.90;;;;;;5102889;27;20031;-42
2023/09/19 09:51:57;;;;;;;14.15;2.40;;;17.00;99.90;;;;;;5129100;27;20030;-51
2023/09/19 09:54:25;;;;;;;9.55;2.85;;;17.10;99.90;;;;;;5117432;27;20434;-45
2023/09/19 09:56:59;;;;;;;13.45;2.08;;;17.50;99.90;;;;;;5127368;27;20019;-55
2023/09/19 09:59:49;;;;;;;14.60;2.88;;;17.60;99.90;;;;;;5130032;27;20084;-56
2023/09/19 10:02:42;;;;;;;12.15;2.70;;;17.60;99.90;;;;;;5133367;27;20027;-51
2023/09/19 10:05:20;;;;;;;9.90;2.30;;;17.50;99.90;;;;;;5104505;27;20027;-51
2023/09/19 10:07:53;;;;;;;16.42;3.17;;;17.50;99.90;;;;;;5128413;27;20029;-47
2023/09/19 10:13:12;;;;;;;8.57;2.28;;;18.80;99.90;;;;;;5123918;27;20103;-50
2023/09/19 10:15:40;;;;;;;11.85;2.60;;;17.50;99.90;;;;;;5120929;27;20026;-58
2023/09/19 10:18:10;;;;;;;17.93;3.13;;;;;;;;;;5116651;27;20076;-43
2023/09/19 10:20:38;;;;;;;20.13;3.13;;;17.80;99.90;;;;;;5115201;27;20278;-50
2023/09/19 10:23:10;;;;;;;6.05;1.90;;;17.20;99.90;;;;;;5117404;27;20027;-52
2023/09/19 10:25:38;;;;;;;12.65;2.30;;;17.60;99.90;;;;;;5129079;27;20476;-53
2023/09/19 10:28:10;;;;;;;11.15;2.75;;;17.20;99.90;;;;;;5121394;27;20133;-54
2023/09/19 10:30:41;;;;;;;18.17;3.22;;;17.20;99.90;;;;;;5113303;27;20114;-53
2023/09/19 10:33:08;;;;;;;10.30;2.10;;;19.00;99.90;;;;;;5112928;28;20027;-50
2023/09/19 10:35:37;;;;;;;10.93;2.28;;;19.20;99.90;;;;;;5115452;27;20472;-55
2023/09/19 10:38:05;;;;;;;16.63;2.60;;;14.40;99.90;;;;;;5113870;27;20054;-43
2023/09/19 10:40:35;;;;;;;19.63;3.47;;;17.10;99.90;;;;;;5130858;27;20399;-54
2023/09/19 10:43:05;;;;;;;6.50;2.03;;;16.00;99.90;;;;;;5122692;27;20469;-45
2023/09/19 10:45:35;;;;;;;9.07;2.05;;;17.60;99.90;;;;;;5117346;27;20016;-54
2023/09/19 10:48:03;;;;;;;16.00;3.15;;;17.10;99.90;;;;;;5115231;27;20106;-40
2023/09/19 10:50:36;;;;;;;14.98;2.47;;;16.90;99.90;;;;;;5120542;27;20364;-47
2023/09/19 10:53:07;;;;;;;13.05;3.00;;;17.40;99.90;;;;;;5121193;27;20484;-44
2023/09/19 10:55:35;;;;;;;8.88;2.78;;;16.90;99.90;;;;;;5120787;27;20039;-51
2023/09/19 10:58:09;;;;;;;9.77;3.17;;;17.40;99.90;;;;;;5117745;27;20396;-43
2023/09/19 11:00:52;;;;;;;14.15;2.78;;;17.10;99.90;;;;;;5119707;27;20024;-55
2023/09/19 11:03:20;;;;;;;17.90;3.55;;;19.70;99.90;;;;;;5118079;27;20026;-60
2023/09/19 11:06:05;;;;;;;9.60;3.17;;;17.40;99.90;;;;;;5120145;27;20156;-57
2023/09/19 11:11:52;;;;;;;12.50;2.67;;;17.80;99.90;;;;;;5120995;27;20495;-53
2023/09/19 11:14:24;;;;;;;13.23;2.60;;;17.20;99.90;;;;;;5129002;27;20073;-50
2023/09/19 11:17:15;;;;;;;9.85;2.65;;;16.90;99.90;;;;;;5126124;27;20047;-49
2023/09/19 11:22:58;;;;;;;7.75;2.13;;;17.00;99.90;;;;;;5120265;27;20035;-59
2023/09/19 11:25:30;;;;;;;13.00;2.90;;;17.70;99.90;;;;;;5118335;27;20395;-56
2023/09/19 11:28:22;;;;;;;21.33;3.58;;;17.50;99.90;;;;;;5131050;27;20034;-49
2023/09/19 11:30:49;;;;;;;22.02;3.58;;;18.70;99.90;;;;;;5122466;27;20035;-46
2023/09/19 11:33:33;;;;;;;11.30;3.03;;;19.30;99.90;;;;;;5122944;27;20078;-53
2023/09/19 11:36:03;;;;;;;11.90;2.80;;;19.00;99.90;;;;;;5131754;27;20023;-57
2023/09/19 11:38:44;;;;;;;20.85;3.00;;;16.20;99.90;;;;;;5130839;27;20407;-59
2023/09/19 11:41:29;;;;;;;11.32;2.33;;;19.60;99.90;;;;;;5131004;27;20098;-57
2023/09/19 11:44:10;;;;;;;14.20;2.70;;;19.20;99.90;;;;;;5124926;27;20096;-51
2023/09/19 11:46:51;;;;;;;10.68;2.38;;;17.00;99.90;;;;;;5125694;27;20433;-57
2023/09/19 11:49:23;;;;;;;18.95;2.83;;;17.20;99.90;;;;;;5120394;27;20107;-52
2023/09/19 11:51:53;;;;;;;18.58;3.22;;;18.00;99.90;;;;;;5127232;27;20143;-54
2023/09/19 11:54:21;;;;;;;9.98;2.30;;;18.00;99.90;;;;;;5125972;27;20047;-48
2023/09/19 11:56:50;;;;;;;17.45;3.15;;;17.50;99.90;;;;;;5121778;27;20031;-54
2023/09/19 11:59:29;;;;;;;8.98;3.40;;;17.20;99.90;;;;;;5112221;27;20054;-60
2023/09/19 12:02:05;;;;;;;9.38;2.47;;;19.10;99.90;;;;;;5111722;27;20076;-51
2023/09/19 12:04:45;;;;;;;12.40;2.95;;;17.20;99.90;;;;;;5114688;27;20085;-57
2023/09/19 12:07:15;;;;;;;13.02;2.83;;;17.20;99.90;;;;;;5113872;27;20015;-61
2023/09/19 12:09:47;;;;;;;13.30;3.33;;;17.20;99.90;;;;;;5123202;27;20384;-51
2023/09/19 12:12:19;;;;;;;14.30;3.63;;;17.20;99.90;;;;;;5123873;27;20083;-47
2023/09/19 12:14:51;;;;;;;14.43;3.75;;;17.80;99.90;;;;;;5131698;27;20046;-56
2023/09/19 12:17:24;;;;;;;14.18;3.15;;;17.00;99.90;;;;;;5117332;27;20027;-58
2023/09/19 12:19:53;;;;;;;13.20;3.03;;;17.30;99.90;;;;;;5129640;27;20023;-59
2023/09/19 12:22:20;;;;;;;11.95;2.92;;;16.70;99.90;;;;;;5125564;27;20034;-58
2023/09/19 12:24:46;;;;;;;19.55;3.45;;;17.50;99.90;;;;;;5124577;27;20049;-61
2023/09/19 12:27:17;;;;;;;11.38;3.28;;;17.30;99.90;;;;;;5120920;27;20144;-51
2023/09/19 12:29:49;;;;;;;17.92;3.03;;;16.60;99.90;;;;;;5110823;28;20063;-54
2023/09/19 12:32:21;;;;;;;17.13;3.63;;;17.80;99.90;;;;;;5111012;28;20068;-54
2023/09/19 12:34:54;;;;;;;20.27;4.00;;;17.60;99.90;;;;;;5115801;27;20530;-55
2023/09/19 12:37:27;;;;;;;17.65;3.15;;;17.40;99.90;;;;;;5122763;27;20027;-48
2023/09/19 12:39:54;;;;;;;15.05;3.00;;;16.30;99.90;;;;;;5121666;27;20035;-49
2023/09/19 12:42:22;;;;;;;17.90;3.05;;;17.70;99.90;;;;;;5121195;27;20016;-58
2023/09/19 12:44:57;;;;;;;13.38;2.85;;;17.50;99.90;;;;;;5123274;27;20392;-54
2023/09/19 12:47:24;;;;;;;14.43;3.63;;;17.50;99.90;;;;;;5124740;27;20072;-51
2023/09/19 12:50:13;;;;;;;15.27;3.30;;;17.50;99.90;;;;;;5119136;28;20023;-42
2023/09/19 12:52:48;;;;;;;17.27;2.80;;;17.00;99.90;;;;;;5123152;27;20027;-53
2023/09/19 12:55:28;;;;;;;14.60;3.72;;;17.30;99.90;;;;;;5125550;27;20483;-52
2023/09/19 12:58:00;;;;;;;;;;;17.50;99.90;;;;;;5122233;27;20075;-52
2023/09/19 13:00:36;;;;;;;16.27;3.40;;;18.50;99.90;;;;;;5129430;27;20329;-55
2023/09/19 13:03:28;;;;;;;12.57;3.03;;;16.60;99.90;;;;;;5122642;27;20027;-53
2023/09/19 13:06:03;;;;;;;15.23;3.22;;;17.50;99.90;;;;;;5126531;27;20099;-51
2023/09/19 13:08:41;;;;;;;15.25;3.33;;;17.60;99.90;;;;;;5122471;27;20019;-52
2023/09/19 13:11:17;;;;;;;15.90;3.60;;;17.40;99.90;;;;;;5122763;27;20114;-43
2023/09/19 13:13:48;;;;;;;12.77;2.30;;;18.10;99.90;;;;;;5117990;27;20047;-50
2023/09/19 13:16:14;;;;;;;14.63;3.20;;;17.60;99.90;;;;;;5123725;27;20027;-62
2023/09/19 13:18:51;;;;;;;9.75;2.72;;;17.60;99.90;;;;;;5117091;27;20051;-59